Time;durP1;ratioP1;P1;durP2;ratioP2;P2;SDS_P1;SDS_P2;PMS_P1;PMS_P2;Temp;Humidity;BMP_temperature;BMP_pressure;BME280_temperature;BME280_humidity;BME280_pressure;Samples;Min_cycle;Max_cycle;Signal;HPM_P1;HPM_P2
2022/01/25 00:26:38;;;;;;;19.63;8.15;;;;;;;1.43;85.25;103391.84;5072234;28;20040;-84
2022/01/25 00:29:11;;;;;;;19.70;8.50;;;;;;;1.44;85.26;103382.50;5073186;28;20103;-84
2022/01/25 00:31:38;;;;;;;18.48;8.38;;;;;;;1.47;84.99;103383.56;5072548;28;20036;-84
2022/01/25 00:34:05;;;;;;;18.50;7.88;;;;;;;1.46;84.81;103386.91;5072236;28;20044;-84
2022/01/25 00:36:30;;;;;;;19.50;8.65;;;;;;;1.49;84.70;103399.00;5068836;22;20053;-84
2022/01/25 00:38:57;;;;;;;19.52;9.05;;;;;;;1.51;85.08;103394.88;5052122;28;20044;-84
2022/01/25 00:41:24;;;;;;;17.73;7.90;;;;;;;1.51;84.82;103395.78;5052469;28;20450;-84
2022/01/25 00:43:49;;;;;;;;;;;;;;;1.53;85.43;103394.19;5063358;28;20089;-84
2022/01/25 00:46:16;;;;;;;18.73;8.63;;;;;;;1.52;85.34;103389.84;5072124;28;19916;-84
2022/01/25 00:48:47;;;;;;;19.17;8.45;;;;;;;1.53;84.95;103383.06;5072786;28;20089;-84
2022/01/25 00:54:27;;;;;;;18.83;8.15;;;;;;;1.56;85.33;103385.84;5062259;28;20033;-85
2022/01/25 00:56:48;;;;;;;18.05;7.53;;;;;;;1.54;85.22;103384.84;5051611;28;20069;-84
2022/01/25 00:59:20;;;;;;;19.20;8.30;;;;;;;1.54;85.36;103380.59;5052577;28;20037;-85
2022/01/25 01:01:48;;;;;;;18.63;8.23;;;;;;;1.56;84.92;103369.56;5051945;28;20033;-85
2022/01/25 01:04:14;;;;;;;17.02;7.32;;;;;;;1.58;84.96;103375.69;5068359;28;20077;-84
2022/01/25 01:06:44;;;;;;;18.35;7.75;;;;;;;1.57;85.26;103379.03;5073473;28;20048;-84
2022/01/25 01:09:11;;;;;;;19.83;8.45;;;;;;;1.57;85.43;103384.16;5073128;28;20434;-84
2022/01/25 01:11:40;;;;;;;;;;;;;;;1.55;85.25;103381.50;5073762;28;20384;-84
2022/01/25 01:14:47;;;;;;;19.23;8.10;;;;;;;1.54;85.23;103378.03;5071647;28;20368;-83
2022/01/25 01:44:05;;;;;;;16.92;7.30;;;;;;;1.69;85.71;103390.91;5031402;28;20044;-84
2022/01/25 01:49:01;;;;;;;19.30;8.43;;;;;;;1.72;85.73;103385.13;5044346;28;20037;-84
2022/01/25 01:51:33;;;;;;;18.25;7.53;;;;;;;1.74;85.60;103387.75;5051896;28;20025;-84
2022/01/25 01:54:07;;;;;;;18.02;8.07;;;;;;;1.77;85.69;103395.66;5061163;28;20104;-84
2022/01/25 01:56:47;;;;;;;18.38;7.68;;;;;;;1.79;85.74;103399.19;5071602;28;20107;-84
2022/01/25 01:59:16;;;;;;;18.02;7.93;;;;;;;1.80;85.83;103399.28;5072220;28;20025;-84
2022/01/25 02:01:44;;;;;;;17.27;7.70;;;;;;;1.76;86.01;103388.75;5072182;28;20020;-84
2022/01/25 02:04:16;;;;;;;17.60;7.50;;;;;;;1.77;85.79;103386.28;5071011;28;20483;-84
2022/01/25 02:06:41;;;;;;;17.75;7.65;;;;;;;1.78;86.04;103379.50;5072125;28;20078;-84
2022/01/25 02:09:08;;;;;;;17.75;7.20;;;;;;;1.78;85.57;103377.81;5071664;28;20419;-84
2022/01/25 02:11:34;;;;;;;18.20;7.72;;;;;;;1.79;85.95;103371.91;5073914;28;20078;-84
2022/01/25 02:14:04;;;;;;;17.45;7.55;;;;;;;1.81;85.79;103385.69;5075462;28;20017;-84
2022/01/25 02:16:44;;;;;;;18.30;7.85;;;;;;;1.82;85.70;103381.44;5075667;28;20024;-84
2022/01/25 02:24:41;;;;;;;20.63;9.85;;;;;;;1.77;86.11;103372.59;5059806;28;20040;-84
2022/01/25 02:27:06;;;;;;;20.83;9.57;;;;;;;1.76;85.63;103369.13;5055132;28;20473;-84
2022/01/25 02:29:32;;;;;;;20.38;9.35;;;;;;;1.78;85.91;103370.13;5055573;28;20040;-84
2022/01/25 02:31:57;;;;;;;20.00;8.70;;;;;;;1.79;85.67;103376.16;5054472;28;20029;-84
2022/01/25 02:34:24;;;;;;;19.15;8.73;;;;;;;1.80;85.79;103363.44;5055492;28;20045;-84
2022/01/25 02:37:00;;;;;;;19.13;8.57;;;;;;;1.81;86.19;103360.06;5055012;28;20547;-84
2022/01/25 02:39:25;;;;;;;18.90;8.02;;;;;;;1.81;85.82;103361.75;5054664;28;20075;-83
2022/01/25 02:41:52;;;;;;;19.35;8.48;;;;;;;1.81;85.79;103362.63;5054896;28;20377;-84
2022/01/25 02:44:23;;;;;;;19.67;8.23;;;;;;;1.84;85.86;103354.25;5054829;28;20029;-84
2022/01/25 02:49:17;;;;;;;18.55;8.07;;;;;;;1.83;86.22;103355.94;5054732;28;20044;-84
2022/01/25 02:51:55;;;;;;;17.55;7.35;;;;;;;1.83;86.12;103360.16;5052400;28;20116;-84
2022/01/25 02:54:20;;;;;;;18.83;8.20;;;;;;;1.83;85.94;103352.47;5054005;28;20025;-84
2022/01/25 02:56:47;;;;;;;19.25;8.18;;;;;;;1.79;86.13;103343.72;5055472;28;20354;-84
2022/01/25 02:59:14;;;;;;;18.05;7.65;;;;;;;1.82;86.24;103354.16;5054705;28;20021;-84
2022/01/25 03:01:39;;;;;;;;;;;;;;;1.87;86.28;103361.22;5054744;28;20043;-84
2022/01/25 03:04:06;;;;;;;17.77;7.50;;;;;;;1.83;86.03;103357.59;5054887;28;20003;-84
2022/01/25 03:06:32;;;;;;;18.08;8.02;;;;;;;1.79;85.96;103353.97;5070625;28;20040;-83
2022/01/25 03:08:58;;;;;;;18.23;7.93;;;;;;;1.82;86.26;103350.69;5073863;28;20021;-84
2022/01/25 03:11:25;;;;;;;18.27;7.40;;;;;;;1.85;86.15;103356.03;5074582;28;20396;-84
2022/01/25 03:13:54;;;;;;;18.58;7.82;;;;;;;1.80;86.05;103336.94;5073790;28;20029;-83
2022/01/25 03:22:03;;;;;;;17.73;7.38;;;;;;;1.84;86.01;103333.75;5073833;28;20043;-84
2022/01/25 03:24:28;;;;;;;16.60;6.97;;;;;;;1.81;86.10;103337.03;5060683;28;20443;-84
2022/01/25 03:26:54;;;;;;;16.08;6.97;;;;;;;1.81;86.50;103328.44;5054106;28;20017;-84
2022/01/25 03:29:28;;;;;;;16.20;6.53;;;;;;;1.80;85.94;103330.13;5053116;28;20032;-84
2022/01/25 03:31:59;;;;;;;16.58;6.60;;;;;;;1.79;86.13;103330.94;5054310;28;20041;-84
2022/01/25 03:34:24;;;;;;;18.17;7.13;;;;;;;1.80;86.19;103330.13;5054102;28;20048;-84
2022/01/25 03:36:50;;;;;;;16.75;6.70;;;;;;;1.86;86.48;103332.19;5053012;28;20045;-84
2022/01/25 03:39:15;;;;;;;16.95;6.72;;;;;;;1.87;86.45;103325.38;5057842;22;20046;-84
2022/01/25 03:41:41;;;;;;;17.85;7.35;;;;;;;1.88;86.20;103322.94;5034096;28;20059;-83
2022/01/25 03:44:06;;;;;;;18.90;8.27;;;;;;;1.85;86.81;103323.63;5033016;28;20029;-84
2022/01/25 03:46:57;;;;;;;19.35;8.10;;;;;;;1.85;86.52;103328.75;5033836;28;20457;-84
2022/01/25 03:52:06;;;;;;;17.90;7.40;;;;;;;1.89;86.50;103327.25;5034060;28;20386;-84
2022/01/25 03:54:31;;;;;;;17.95;7.80;;;;;;;1.90;86.10;103330.69;5046996;28;20488;-84
2022/01/25 03:56:56;;;;;;;18.35;7.82;;;;;;;1.92;86.50;103340.22;5053050;28;20033;-84
2022/01/25 03:59:22;;;;;;;19.45;8.13;;;;;;;1.94;86.57;103341.22;5053007;28;20079;-84
2022/01/25 04:01:47;;;;;;;19.63;8.10;;;;;;;1.94;86.51;103341.22;5053815;28;20020;-84
2022/01/25 04:04:16;;;;;;;18.95;8.15;;;;;;;1.96;86.51;103346.44;5052812;28;20021;-84
2022/01/25 04:06:46;;;;;;;18.95;7.95;;;;;;;1.99;86.37;103349.16;5053511;28;20028;-84
2022/01/25 04:09:12;;;;;;;18.95;8.30;;;;;;;1.97;86.37;103336.28;5053357;28;20465;-84
2022/01/25 04:11:37;;;;;;;18.30;7.85;;;;;;;1.99;86.25;103339.84;5052098;28;20029;-84
2022/01/25 04:14:04;;;;;;;18.52;8.00;;;;;;;2.02;86.29;103346.81;5053011;28;20024;-84
2022/01/25 04:16:34;;;;;;;19.15;7.90;;;;;;;1.99;86.48;103344.03;5053645;28;20031;-84
2022/01/25 04:19:08;;;;;;;18.60;7.75;;;;;;;2.01;86.83;103347.59;5052523;28;20040;-84
2022/01/25 04:26:44;;;;;;;18.55;7.47;;;;;;;2.00;86.42;103335.56;5033829;28;20036;-84
2022/01/25 04:29:10;;;;;;;18.55;7.78;;;;;;;2.03;86.46;103334.91;5033144;28;20466;-84
2022/01/25 04:31:36;;;;;;;17.85;7.53;;;;;;;1.99;86.65;103326.13;5032756;28;20167;-84
2022/01/25 04:34:25;;;;;;;18.88;8.25;;;;;;;1.99;86.47;103328.69;5032468;28;20045;-84
2022/01/25 04:56:00;;;;;;;22.58;10.13;;;;;;;1.96;86.98;103325.97;5032940;28;20413;-84
2022/01/25 04:58:35;;;;;;;22.15;10.20;;;;;;;1.99;86.80;103321.00;5033050;28;20021;-84
2022/01/25 05:01:00;;;;;;;21.10;9.35;;;;;;;2.01;86.39;103321.97;5031179;28;20037;-84
2022/01/25 05:03:35;;;;;;;20.48;8.95;;;;;;;2.03;86.64;103322.97;5048157;28;20040;-84
2022/01/25 05:06:10;;;;;;;20.15;8.90;;;;;;;2.06;86.71;103319.69;5052431;28;20107;-84
2022/01/25 05:08:44;;;;;;;20.13;8.77;;;;;;;2.07;86.50;103318.91;5052897;28;20159;-84
2022/01/25 05:11:16;;;;;;;20.33;8.70;;;;;;;2.09;86.76;103318.19;5052665;28;20381;-84
2022/01/25 05:13:55;;;;;;;19.85;8.50;;;;;;;2.07;86.71;103314.69;5052115;28;20434;-84
2022/01/25 05:16:29;;;;;;;19.40;8.10;;;;;;;2.12;86.72;103320.06;5052370;28;20066;-84
2022/01/25 05:19:09;;;;;;;18.45;7.97;;;;;;;2.11;86.63;103321.72;5052534;28;20025;-84
2022/01/25 05:24:20;;;;;;;18.65;7.82;;;;;;;2.12;86.65;103317.50;5040720;28;20444;-84
2022/01/25 05:26:45;;;;;;;18.95;8.10;;;;;;;2.14;86.88;103309.13;5032539;28;20021;-84
2022/01/25 05:29:11;;;;;;;18.50;7.68;;;;;;;2.15;86.74;103320.22;5031876;28;20462;-84
2022/01/25 05:31:37;;;;;;;20.00;8.32;;;;;;;2.16;86.68;103322.00;5032450;28;20381;-84
2022/01/25 05:34:03;;;;;;;19.30;7.85;;;;;;;2.10;86.71;103307.16;5023894;28;20042;-84
2022/01/25 05:36:28;;;;;;;19.25;8.18;;;;;;;2.13;86.43;103311.59;5031995;28;20103;-84
2022/01/25 05:38:57;;;;;;;19.15;7.90;;;;;;;2.16;86.97;103311.75;5032377;28;20052;-84
2022/01/25 05:41:26;;;;;;;21.40;9.10;;;;;;;2.10;86.88;103302.03;5031351;28;20474;-83
2022/01/25 05:44:20;;;;;;;19.95;8.73;;;;;;;2.11;86.94;103306.38;5024237;28;20107;-84
2022/01/25 05:47:06;;;;;;;19.25;7.97;;;;;;;2.14;86.90;103310.78;5035285;28;20029;-84
2022/01/25 05:49:37;;;;;;;18.70;7.53;;;;;;;2.11;86.77;103308.06;5035427;28;20026;-84
2022/01/25 05:52:05;;;;;;;18.77;7.75;;;;;;;2.12;86.79;103309.81;5035851;28;20052;-84
2022/01/25 05:54:31;;;;;;;19.73;8.15;;;;;;;2.16;86.77;103311.75;5049282;28;20116;-84
2022/01/25 05:56:56;;;;;;;19.38;8.05;;;;;;;2.15;86.71;103307.41;5055452;28;20112;-84
2022/01/25 05:59:21;;;;;;;19.38;8.23;;;;;;;2.19;86.69;103311.06;5055457;28;20025;-84
2022/01/25 06:01:47;;;;;;;19.65;8.32;;;;;;;2.20;86.97;103315.38;5055955;28;20021;-84
2022/01/25 06:04:13;;;;;;;19.90;8.70;;;;;;;2.18;86.79;103310.19;5054644;28;20031;-84
2022/01/25 06:06:38;;;;;;;18.77;7.95;;;;;;;2.22;86.81;103306.13;5055874;28;20090;-84
2022/01/25 06:09:04;;;;;;;19.15;8.10;;;;;;;2.22;86.81;103306.13;5055892;28;20366;-82
2022/01/25 06:11:29;;;;;;;19.27;7.75;;;;;;;2.18;86.78;103305.06;5045640;28;20040;-84
2022/01/25 06:13:54;;;;;;;18.45;7.20;;;;;;;2.19;86.99;103311.06;5034788;28;20040;-83
2022/01/25 06:18:53;;;;;;;18.75;7.35;;;;;;;2.19;86.78;103314.50;5062058;22;20049;-84
2022/01/25 06:21:19;;;;;;;19.40;8.07;;;;;;;2.15;87.33;103304.88;5054965;28;20586;-80
2022/01/25 06:23:44;;;;;;;19.20;8.20;;;;;;;2.15;87.13;103304.88;5060688;28;20525;-80
2022/01/25 06:26:12;;;;;;;20.30;8.38;;;;;;;2.20;86.75;103302.56;5075293;28;20471;-80
2022/01/25 06:28:43;;;;;;;20.17;8.32;;;;;;;2.23;87.25;103307.88;5075558;28;20040;-80
2022/01/25 06:31:09;;;;;;;20.13;8.55;;;;;;;2.20;86.93;103295.78;5074402;28;20021;-80
2022/01/25 06:33:34;;;;;;;18.55;7.55;;;;;;;2.19;86.92;103298.25;5075357;28;20028;-80
2022/01/25 06:36:00;;;;;;;21.10;9.20;;;;;;;2.16;87.17;103302.41;5075087;28;20362;-80
2022/01/25 06:38:27;;;;;;;21.98;9.73;;;;;;;2.19;87.27;103306.81;5074610;28;20059;-80
2022/01/25 06:40:55;;;;;;;21.13;9.63;;;;;;;2.17;87.40;103310.97;5075247;28;20029;-80
2022/01/25 06:43:21;;;;;;;21.70;9.75;;;;;;;2.21;86.78;103315.50;5075144;28;20033;-80
2022/01/25 06:45:55;;;;;;;21.02;8.88;;;;;;;2.24;87.16;103318.25;5074230;28;20048;-80
2022/01/25 06:48:20;;;;;;;21.30;8.88;;;;;;;2.25;86.98;103319.97;5073124;28;20024;-80
2022/01/25 06:50:46;;;;;;;22.75;9.35;;;;;;;2.26;86.90;103319.19;5075273;28;20054;-80
2022/01/25 06:53:11;;;;;;;21.27;8.90;;;;;;;2.27;87.23;103310.72;5073403;28;20096;-80
2022/01/25 06:55:36;;;;;;;21.58;9.23;;;;;;;2.29;87.08;103314.25;5075046;28;20040;-80
2022/01/25 06:58:02;;;;;;;22.13;9.57;;;;;;;2.29;87.10;103316.81;5073055;28;20028;-80
2022/01/25 07:00:27;;;;;;;22.13;9.40;;;;;;;2.33;86.86;103317.00;5052727;28;20462;-80
2022/01/25 07:02:52;;;;;;;21.10;9.13;;;;;;;2.31;86.97;103317.81;5053654;28;20524;-80
2022/01/25 07:05:17;;;;;;;22.27;9.10;;;;;;;2.33;86.83;103324.69;5054214;28;20060;-82
2022/01/25 07:07:44;;;;;;;21.33;9.20;;;;;;;2.34;86.83;103335.03;5053671;28;20090;-82
2022/01/25 07:10:09;;;;;;;20.67;8.40;;;;;;;2.37;87.05;103327.53;5054305;28;20029;-82
2022/01/25 07:12:35;;;;;;;21.58;9.23;;;;;;;2.37;87.10;103331.75;5054042;28;20083;-82
2022/01/25 07:15:00;;;;;;;22.23;9.50;;;;;;;2.37;86.83;103329.19;5057300;28;20059;-82
2022/01/25 07:17:25;;;;;;;20.25;8.45;;;;;;;2.32;86.93;103326.34;5054334;28;20041;-84
2022/01/25 07:19:51;;;;;;;21.45;8.63;;;;;;;2.34;86.80;103319.66;5053623;28;20033;-83
2022/01/25 07:22:17;;;;;;;20.63;8.65;;;;;;;2.40;86.99;103334.50;5054315;28;20375;-84
2022/01/25 07:24:42;;;;;;;21.38;9.43;;;;;;;2.40;87.41;103329.38;5105050;22;20049;-84
2022/01/25 07:27:08;;;;;;;22.05;9.05;;;;;;;2.40;87.27;103329.38;5033082;28;20053;-84
2022/01/25 07:29:42;;;;;;;25.30;11.55;;;;;;;2.41;87.13;103333.72;5035396;28;20381;-84
2022/01/25 07:32:08;;;;;;;24.15;11.10;;;;;;;2.34;86.59;103329.03;5045157;28;20017;-84
2022/01/25 07:34:33;;;;;;;25.40;11.52;;;;;;;2.30;86.58;103323.72;5033630;28;20040;-84
2022/01/25 07:36:59;;;;;;;31.63;15.85;;;;;;;2.30;85.79;103336.53;5033950;28;20064;-83
2022/01/25 07:39:26;;;;;;;36.20;18.92;;;;;;;2.26;85.95;103323.44;5034255;28;20470;-83
2022/01/25 07:42:07;;;;;;;41.13;21.38;;;;;;;2.19;83.69;103323.88;5033267;28;20030;-83
2022/01/25 07:44:36;;;;;;;48.72;27.10;;;;;;;2.23;84.66;103328.38;5038935;28;20115;-84
2022/01/25 07:47:03;;;;;;;42.38;22.40;;;;;;;2.24;84.78;103331.06;5037706;28;20040;-87
2022/01/25 07:49:29;;;;;;;;;;;;;;;2.27;85.36;103338.91;5046514;22;20048;-85
2022/01/25 07:51:54;;;;;;;38.88;19.90;;;;;;;2.28;85.49;103339.81;5053727;28;19919;-86
2022/01/25 07:54:20;;;;;;;34.45;17.70;;;;;;;2.29;85.53;103339.88;5053638;28;20021;-84
2022/01/25 07:56:45;;;;;;;32.83;16.08;;;;;;;2.31;85.58;103339.97;5052765;28;20036;-84
2022/01/25 07:59:12;;;;;;;38.70;19.65;;;;;;;2.30;84.59;103338.22;5053053;28;20094;-85
2022/01/25 08:01:37;;;;;;;42.90;23.20;;;;;;;2.27;84.63;103338.91;5053485;28;20052;-84
2022/01/25 08:04:03;;;;;;;40.42;21.15;;;;;;;2.29;84.92;103337.31;5052467;28;20029;-84
2022/01/25 08:06:30;;;;;;;36.22;18.38;;;;;;;2.30;84.76;103336.53;5053326;28;20037;-85
2022/01/25 08:09:08;;;;;;;37.13;19.23;;;;;;;2.31;84.94;103332.28;5052563;28;20179;-85
2022/01/25 08:11:34;;;;;;;35.55;17.58;;;;;;;2.29;84.72;103323.63;5053220;28;20519;-84
2022/01/25 08:14:12;;;;;;;32.42;16.20;;;;;;;2.30;84.79;103333.09;5053291;28;20025;-85
2022/01/25 08:16:49;;;;;;;30.17;14.48;;;;;;;2.31;85.37;103325.50;5053743;28;20029;-85
2022/01/25 08:19:16;;;;;;;27.80;13.48;;;;;;;2.36;84.91;103340.25;5053399;28;20033;-85
2022/01/25 08:21:41;;;;;;;27.75;13.30;;;;;;;2.40;84.96;103345.66;5053314;28;20036;-85
2022/01/25 08:24:09;;;;;;;26.13;12.07;;;;;;;2.37;84.68;103337.78;5053331;28;20024;-85
2022/01/25 08:26:53;;;;;;;28.77;13.50;;;;;;;2.39;84.31;103342.97;5053051;28;20151;-85
2022/01/25 08:29:18;;;;;;;35.05;17.63;;;;;;;2.36;84.76;103333.44;5052986;28;20136;-85
2022/01/25 08:31:43;;;;;;;32.25;16.23;;;;;;;2.42;84.74;103343.16;5052461;28;20139;-84
2022/01/25 08:34:11;;;;;;;31.23;15.02;;;;;;;2.47;85.32;103344.34;5053005;28;20044;-85
2022/01/25 08:36:37;;;;;;;30.48;14.38;;;;;;;2.46;84.99;103335.75;5053043;28;20025;-85
2022/01/25 08:39:04;;;;;;;29.00;13.55;;;;;;;2.50;85.16;103334.25;5052198;28;20057;-85
2022/01/25 08:41:42;;;;;;;26.70;12.50;;;;;;;2.59;85.22;103347.59;5053114;28;20025;-85
2022/01/25 08:44:07;;;;;;;26.55;11.77;;;;;;;2.56;85.09;103339.75;5053063;28;20576;-85
2022/01/25 08:46:33;;;;;;;29.58;14.30;;;;;;;2.59;84.14;103359.53;5052319;28;20104;-86
2022/01/25 08:48:58;;;;;;;28.98;13.57;;;;;;;2.56;84.88;103343.97;5052415;28;20029;-84
2022/01/25 08:51:24;;;;;;;26.67;12.40;;;;;;;2.60;84.77;103351.06;5051911;28;20025;-85
2022/01/25 08:53:50;;;;;;;27.30;12.50;;;;;;;2.62;85.07;103352.03;5052557;28;20059;-85
2022/01/25 08:56:31;;;;;;;25.95;11.63;;;;;;;2.66;84.99;103356.53;5053214;28;20021;-85
2022/01/25 08:59:02;;;;;;;41.08;21.48;;;;;;;2.58;83.91;103343.28;5052258;28;20465;-85
2022/01/25 09:01:27;;;;;;;47.75;25.48;;;;;;;2.56;80.91;103347.44;5052501;28;20074;-85
2022/01/25 09:03:56;;;;;;;49.60;27.02;;;;;;;2.59;83.54;103356.97;5052924;28;20017;-85
2022/01/25 09:06:21;;;;;;;44.65;23.73;;;;;;;2.59;83.64;103359.53;5052004;28;20021;-85
2022/01/25 09:08:51;;;;;;;42.60;22.85;;;;;;;2.59;84.33;103354.41;5052246;28;20033;-86
2022/01/25 09:11:17;;;;;;;38.53;20.42;;;;;;;2.58;84.08;103358.66;5052555;28;20033;-85
2022/01/25 09:13:42;;;;;;;38.75;20.48;;;;;;;2.66;83.74;103365.91;5051808;28;20028;-85
2022/01/25 09:16:20;;;;;;;38.35;20.33;;;;;;;2.64;84.03;103355.56;5052169;28;20026;-85
2022/01/25 09:18:45;;;;;;;38.28;19.65;;;;;;;2.63;82.59;103354.69;5056887;28;20469;-86
2022/01/25 09:21:11;;;;;;;34.42;18.23;;;;;;;2.65;83.23;103359.88;5075483;28;20032;-85
2022/01/25 09:23:37;;;;;;;35.95;18.70;;;;;;;2.66;83.88;103360.78;5075364;28;20436;-85
2022/01/25 09:26:22;;;;;;;33.60;17.55;;;;;;;2.64;84.13;103358.13;5051522;28;20028;-85
2022/01/25 09:28:49;;;;;;;30.83;15.10;;;;;;;2.68;83.81;103362.63;5066143;28;20030;-85
2022/01/25 09:31:16;;;;;;;30.73;15.25;;;;;;;2.68;83.82;103364.31;5065698;28;20028;-85
2022/01/25 09:33:56;;;;;;;35.85;18.92;;;;;;;2.70;82.57;103367.88;5054054;28;20033;-84
2022/01/25 09:36:28;;;;;;;35.03;18.13;;;;;;;2.65;82.38;103370.13;5055147;28;20029;-86
2022/01/25 09:38:59;;;;;;;35.33;18.67;;;;;;;2.70;83.06;103367.88;5056284;28;20103;-85
2022/01/25 09:41:25;;;;;;;38.97;21.00;;;;;;;2.72;81.40;103369.72;5055280;28;20091;-85
2022/01/25 09:43:50;;;;;;;35.50;18.98;;;;;;;2.74;82.70;103373.25;5056274;28;20021;-85
2022/01/25 09:46:16;;;;;;;33.15;17.38;;;;;;;2.75;82.97;103371.56;5055659;28;20061;-84
2022/01/25 09:48:42;;;;;;;37.75;19.10;;;;;;;2.74;81.18;103364.66;5055265;28;20089;-85
2022/01/25 09:51:32;;;;;;;42.00;22.65;;;;;;;2.77;81.71;103377.69;5054785;28;20048;-85
2022/01/25 09:53:58;;;;;;;49.45;27.73;;;;;;;2.74;80.38;103377.50;5059412;28;20043;-84
2022/01/25 09:56:38;;;;;;;49.20;27.15;;;;;;;2.70;81.90;103378.13;5075916;28;20028;-85
2022/01/25 09:59:07;;;;;;;56.67;32.15;;;;;;;2.68;80.02;103372.88;5075223;28;20099;-83
2022/01/25 10:01:32;;;;;;;52.40;29.27;;;;;;;2.70;81.50;103380.69;5075630;28;20036;-83
2022/01/25 10:04:00;;;;;;;45.75;25.75;;;;;;;2.78;81.50;103387.13;5074841;28;20377;-82
2022/01/25 10:06:32;;;;;;;56.53;32.75;;;;;;;2.73;81.01;103378.28;5075690;28;20021;-85
2022/01/25 10:08:58;;;;;;;53.55;30.80;;;;;;;2.80;81.93;103385.56;5074502;28;20029;-84
2022/01/25 10:11:25;;;;;;;57.75;31.70;;;;;;;2.81;80.09;103389.91;5059118;28;20488;-84
2022/01/25 10:13:55;;;;;;;50.22;28.65;;;;;;;2.82;81.43;103386.50;5055605;28;20071;-83
2022/01/25 10:16:29;;;;;;;57.85;32.53;;;;;;;2.82;79.40;103378.81;5054482;28;20477;-83
2022/01/25 10:18:57;;;;;;;60.83;35.38;;;;;;;2.84;80.52;103382.34;5055426;28;20029;-83
2022/01/25 10:21:25;;;;;;;64.35;36.53;;;;;;;2.82;78.78;103383.06;5055530;28;20146;-84
2022/01/25 10:24:10;;;;;;;57.47;33.22;;;;;;;2.86;81.12;103391.03;5057007;28;20029;-84
2022/01/25 10:26:43;;;;;;;66.63;37.55;;;;;;;2.85;80.73;103381.56;5075458;28;20029;-84
2022/01/25 10:29:16;;;;;;;55.83;32.35;;;;;;;2.85;80.71;103383.25;5074825;28;20032;-84
2022/01/25 10:31:47;;;;;;;57.05;32.28;;;;;;;2.93;81.21;103387.13;5074251;28;20081;-84
2022/01/25 10:34:15;;;;;;;50.92;28.50;;;;;;;2.94;81.49;103392.34;5075302;28;20021;-85
2022/01/25 10:36:45;;;;;;;48.05;27.45;;;;;;;2.98;81.15;103389.97;5075123;28;20107;-83
2022/01/25 10:39:10;;;;;;;50.53;28.08;;;;;;;3.04;81.60;103387.75;5074746;28;20492;-84
2022/01/25 10:41:36;;;;;;;44.10;24.55;;;;;;;3.04;81.72;103375.81;5075059;28;20020;-83
2022/01/25 10:44:02;;;;;;;46.28;26.38;;;;;;;3.06;80.58;103375.88;5074137;28;20048;-84
2022/01/25 10:46:31;;;;;;;49.53;27.58;;;;;;;3.06;81.06;103381.00;5074697;28;20032;-84
2022/01/25 10:49:10;;;;;;;57.17;33.40;;;;;;;3.03;77.93;103380.84;5070540;22;20148;-84
2022/01/25 10:51:42;;;;;;;65.38;37.75;;;;;;;2.97;77.75;103375.38;5054186;28;20067;-84
2022/01/25 10:54:20;;;;;;;72.70;40.88;;;;;;;2.96;78.30;103377.06;5054593;28;20062;-84
2022/01/25 10:56:54;;;;;;;65.20;35.92;;;;;;;2.98;78.42;103379.69;5054768;28;20055;-84
2022/01/25 10:59:29;;;;;;;60.55;34.38;;;;;;;2.98;78.34;103377.13;5054026;28;20017;-84
2022/01/25 11:02:03;;;;;;;72.60;41.38;;;;;;;2.94;78.17;103378.66;5054879;28;20024;-83
2022/01/25 11:07:18;;;;;;;73.28;42.42;;;;;;;2.83;76.90;103370.31;5054382;28;20040;-84
2022/01/25 11:09:47;;;;;;;75.68;42.83;;;;;;;2.84;77.80;103378.91;5054535;28;20036;-84
2022/01/25 11:12:27;;;;;;;69.72;39.38;;;;;;;2.84;78.25;103384.03;5053308;28;20188;-84
2022/01/25 11:14:58;;;;;;;67.07;38.35;;;;;;;2.89;78.59;103391.22;5054670;28;20028;-84
2022/01/25 11:17:42;;;;;;;73.65;40.95;;;;;;;2.82;78.79;103381.38;5054737;28;20029;-84
2022/01/25 11:20:08;;;;;;;73.38;39.92;;;;;;;2.90;78.35;103392.09;5053576;28;20052;-84
2022/01/25 11:22:34;;;;;;;76.03;42.60;;;;;;;2.80;76.92;103384.66;5054085;28;20385;-84
2022/01/25 11:25:09;;;;;;;70.30;39.80;;;;;;;2.89;78.48;103387.75;5054257;28;20029;-84
2022/01/25 11:27:37;;;;;;;62.10;35.83;;;;;;;2.89;78.11;103390.31;5053858;28;20404;-84
2022/01/25 11:30:10;;;;;;;62.15;34.80;;;;;;;2.94;78.42;103388.91;5054273;28;20108;-84
2022/01/25 11:32:43;;;;;;;66.50;37.58;;;;;;;2.93;77.79;103388.00;5054238;28;20116;-83
2022/01/25 11:35:11;;;;;;;70.82;40.30;;;;;;;2.90;78.20;103382.72;5053494;28;20052;-84
2022/01/25 11:37:40;;;;;;;71.30;39.60;;;;;;;2.91;77.37;103384.50;5053842;28;20103;-85
2022/01/25 11:40:27;;;;;;;60.28;34.00;;;;;;;2.94;77.50;103383.78;5053036;28;20017;-83
2022/01/25 11:42:55;;;;;;;57.25;32.85;;;;;;;2.99;78.15;103381.47;5053898;28;20040;-84
2022/01/25 11:45:45;;;;;;;56.83;32.58;;;;;;;3.02;77.76;103384.22;5053726;28;20029;-84
2022/01/25 11:48:10;;;;;;;55.03;31.67;;;;;;;3.03;78.11;103391.13;5052450;28;20044;-84
2022/01/25 11:50:54;;;;;;;52.65;29.30;;;;;;;3.06;78.51;103387.03;5054138;28;20090;-84
2022/01/25 11:53:23;;;;;;;54.70;30.70;;;;;;;3.04;77.79;103372.38;5053601;28;20044;-84
2022/01/25 11:55:53;;;;;;;66.95;38.42;;;;;;;3.05;77.42;103380.13;5053017;28;20563;-84
2022/01/25 11:58:31;;;;;;;61.88;36.05;;;;;;;3.08;78.09;103376.84;5053406;28;20025;-84
2022/01/25 12:01:06;;;;;;;72.35;41.15;;;;;;;3.03;75.62;103376.59;5053288;28;20025;-84
2022/01/25 12:03:40;;;;;;;72.20;40.67;;;;;;;3.05;77.15;103379.25;5053277;28;20048;-84
2022/01/25 12:06:14;;;;;;;65.07;36.35;;;;;;;3.06;77.48;103374.22;5053578;28;20028;-84
2022/01/25 12:11:32;;;;;;;68.82;39.33;;;;;;;3.06;77.00;103370.75;5053043;28;20469;-84
2022/01/25 12:14:18;;;;;;;72.78;39.92;;;;;;;3.04;76.86;103372.38;5053329;28;20465;-83
2022/01/25 12:16:45;;;;;;;;;;;;;;;2.98;75.20;103372.91;5053249;28;20032;-84
2022/01/25 12:19:32;;;;;;;;;;;;;;;2.95;75.09;103367.59;5053289;28;19913;-84
2022/01/25 12:22:38;;;;;;;70.03;38.58;;;;;;;2.92;75.27;103365.75;5052901;28;19927;-84
2022/01/25 12:25:34;;;;;;;68.43;37.22;;;;;;;2.98;76.11;103365.22;4952976;29;20027;-84
2022/01/25 12:28:02;;;;;;;60.60;34.88;;;;;;;3.02;74.96;103363.69;5128445;22;20080;-84
2022/01/25 12:30:45;;;;;;;63.63;34.22;;;;;;;3.02;75.47;103356.00;5072643;28;20074;-84
2022/01/25 12:33:20;;;;;;;56.85;31.33;;;;;;;3.12;76.98;103354.81;5072868;28;20108;-83
2022/01/25 12:36:05;;;;;;;50.28;28.23;;;;;;;3.16;77.42;103346.50;5072965;28;20016;-84
2022/01/25 12:38:43;;;;;;;44.65;23.25;;;;;;;3.28;77.73;103348.84;5054504;28;20031;-84
2022/01/25 12:41:23;;;;;;;38.97;21.30;;;;;;;3.31;76.84;103337.09;5072758;28;20488;-84
2022/01/25 12:43:53;;;;;;;40.72;21.77;;;;;;;3.40;77.01;103346.97;5072256;28;20469;-84
2022/01/25 12:46:40;;;;;;;39.28;20.63;;;;;;;3.44;77.48;103346.34;5072556;28;20499;-84
2022/01/25 12:49:13;;;;;;;37.40;19.58;;;;;;;3.45;77.25;103331.81;5072476;28;20108;-84
2022/01/25 12:51:55;;;;;;;36.40;19.25;;;;;;;3.49;77.39;103332.06;5072301;28;20052;-84
2022/01/25 12:54:22;;;;;;;40.03;21.42;;;;;;;3.48;74.92;103331.97;5072195;28;20056;-84
2022/01/25 12:56:48;;;;;;;;;;;;;;;3.52;77.13;103334.78;5073026;28;20096;-84
2022/01/25 12:59:33;;;;;;;47.72;25.80;;;;;;;3.49;76.01;103323.47;5072047;28;20391;-84
2022/01/25 13:01:59;;;;;;;47.30;25.13;;;;;;;3.54;77.19;103333.19;5072557;28;20108;-84
2022/01/25 13:04:24;;;;;;;39.38;20.88;;;;;;;3.60;77.31;103321.50;5072655;28;20103;-84
2022/01/25 13:06:52;;;;;;;38.65;20.27;;;;;;;3.62;77.28;103320.78;5071992;28;20035;-84
2022/01/25 13:09:43;;;;;;;34.50;17.95;;;;;;;3.68;77.28;103315.09;5072427;28;20435;-84
2022/01/25 13:12:16;;;;;;;33.65;17.80;;;;;;;3.70;77.44;103324.63;5071824;28;20051;-84
2022/01/25 13:14:51;;;;;;;31.92;15.50;;;;;;;3.72;77.41;103311.84;5073050;28;20028;-84
2022/01/25 13:17:20;;;;;;;31.13;15.85;;;;;;;3.76;76.69;103305.22;5072378;28;20035;-84
2022/01/25 13:19:58;;;;;;;30.98;15.50;;;;;;;3.74;77.27;103299.97;5071990;28;20025;-84
2022/01/25 13:22:42;;;;;;;34.42;17.48;;;;;;;3.73;76.81;103294.78;5063317;28;20032;-84
2022/01/25 13:25:14;;;;;;;48.08;26.70;;;;;;;3.69;72.22;103306.56;5072194;28;20024;-84
2022/01/25 13:27:56;;;;;;;63.53;36.17;;;;;;;3.54;73.78;103304.94;5062821;28;20500;-84